sensor_id;sensor_type;location;lat;lon;timestamp;P1;durP1;ratioP1;P2;durP2;ratioP2
23490;SDS011;14683;50.038;8.078;2022-12-18T03:50:06;33.72;;;16.15;;
23490;SDS011;14683;50.038;8.078;2022-12-18T03:52:57;30.08;;;14.02;;
23490;SDS011;14683;50.038;8.078;2022-12-18T03:55:50;37.78;;;17.45;;
23490;SDS011;14683;50.038;8.078;2022-12-18T03:58:19;38.88;;;17.45;;
23490;SDS011;14683;50.038;8.078;2022-12-18T04:01:06;37.55;;;18.10;;
23490;SDS011;14683;50.038;8.078;2022-12-18T04:06:01;41.17;;;18.02;;
23490;SDS011;14683;50.038;8.078;2022-12-18T04:08:28;37.33;;;17.75;;
23490;SDS011;14683;50.038;8.078;2022-12-18T04:11:01;38.10;;;17.95;;
23490;SDS011;14683;50.038;8.078;2022-12-18T04:13:28;42.63;;;19.13;;
23490;SDS011;14683;50.038;8.078;2022-12-18T04:15:58;34.85;;;17.58;;
23490;SDS011;14683;50.038;8.078;2022-12-18T04:18:24;40.70;;;19.20;;
23490;SDS011;14683;50.038;8.078;2022-12-18T04:20:50;42.72;;;18.48;;
23490;SDS011;14683;50.038;8.078;2022-12-18T04:23:17;34.33;;;17.48;;
23490;SDS011;14683;50.038;8.078;2022-12-18T04:25:43;37.80;;;17.98;;
23490;SDS011;14683;50.038;8.078;2022-12-18T04:28:15;43.97;;;19.00;;
23490;SDS011;14683;50.038;8.078;2022-12-18T04:30:41;44.17;;;19.00;;
23490;SDS011;14683;50.038;8.078;2022-12-18T04:33:12;38.70;;;18.20;;
23490;SDS011;14683;50.038;8.078;2022-12-18T04:35:42;37.80;;;18.42;;
23490;SDS011;14683;50.038;8.078;2022-12-18T04:38:09;41.67;;;19.38;;
23490;SDS011;14683;50.038;8.078;2022-12-18T04:40:39;43.15;;;18.67;;
23490;SDS011;14683;50.038;8.078;2022-12-18T04:43:11;40.95;;;18.77;;
23490;SDS011;14683;50.038;8.078;2022-12-18T04:45:37;40.83;;;17.98;;
23490;SDS011;14683;50.038;8.078;2022-12-18T04:48:03;41.08;;;17.35;;
23490;SDS011;14683;50.038;8.078;2022-12-18T04:50:30;44.42;;;18.80;;
23490;SDS011;14683;50.038;8.078;2022-12-18T04:52:56;39.85;;;17.98;;
23490;SDS011;14683;50.038;8.078;2022-12-18T04:55:22;42.50;;;19.65;;
23490;SDS011;14683;50.038;8.078;2022-12-18T04:57:51;43.95;;;19.13;;
23490;SDS011;14683;50.038;8.078;2022-12-18T05:00:17;40.65;;;19.02;;
23490;SDS011;14683;50.038;8.078;2022-12-18T05:02:43;40.10;;;19.15;;
23490;SDS011;14683;50.038;8.078;2022-12-18T05:05:09;43.35;;;19.88;;
23490;SDS011;14683;50.038;8.078;2022-12-18T05:07:36;42.00;;;18.23;;
23490;SDS011;14683;50.038;8.078;2022-12-18T05:10:02;36.95;;;17.70;;
23490;SDS011;14683;50.038;8.078;2022-12-18T05:12:32;44.55;;;19.90;;
23490;SDS011;14683;50.038;8.078;2022-12-18T05:14:58;48.15;;;19.75;;
23490;SDS011;14683;50.038;8.078;2022-12-18T05:17:24;41.85;;;18.42;;
23490;SDS011;14683;50.038;8.078;2022-12-18T05:19:50;40.97;;;18.88;;
23490;SDS011;14683;50.038;8.078;2022-12-18T05:22:16;41.50;;;18.90;;
23490;SDS011;14683;50.038;8.078;2022-12-18T05:24:42;44.42;;;20.00;;
23490;SDS011;14683;50.038;8.078;2022-12-18T05:27:08;44.53;;;19.55;;
23490;SDS011;14683;50.038;8.078;2022-12-18T05:29:34;39.72;;;17.27;;
23490;SDS011;14683;50.038;8.078;2022-12-18T05:32:00;38.38;;;17.48;;
23490;SDS011;14683;50.038;8.078;2022-12-18T05:34:26;42.75;;;19.10;;
23490;SDS011;14683;50.038;8.078;2022-12-18T05:36:52;37.78;;;18.52;;
23490;SDS011;14683;50.038;8.078;2022-12-18T05:39:18;39.45;;;18.23;;
23490;SDS011;14683;50.038;8.078;2022-12-18T05:41:44;38.10;;;17.75;;
23490;SDS011;14683;50.038;8.078;2022-12-18T05:44:10;38.97;;;17.55;;
23490;SDS011;14683;50.038;8.078;2022-12-18T05:46:36;39.47;;;18.25;;
23490;SDS011;14683;50.038;8.078;2022-12-18T05:49:02;42.45;;;18.55;;
23490;SDS011;14683;50.038;8.078;2022-12-18T05:51:28;39.15;;;18.13;;
23490;SDS011;14683;50.038;8.078;2022-12-18T05:53:54;39.17;;;17.90;;
23490;SDS011;14683;50.038;8.078;2022-12-18T05:56:21;44.50;;;19.67;;
23490;SDS011;14683;50.038;8.078;2022-12-18T05:58:50;46.53;;;19.80;;
23490;SDS011;14683;50.038;8.078;2022-12-18T06:01:19;37.97;;;18.15;;
23490;SDS011;14683;50.038;8.078;2022-12-18T06:03:47;43.00;;;20.13;;
23490;SDS011;14683;50.038;8.078;2022-12-18T06:06:14;40.55;;;18.63;;
23490;SDS011;14683;50.038;8.078;2022-12-18T06:08:40;47.97;;;19.90;;
23490;SDS011;14683;50.038;8.078;2022-12-18T06:11:06;42.78;;;19.05;;
23490;SDS011;14683;50.038;8.078;2022-12-18T06:13:32;48.75;;;20.65;;
23490;SDS011;14683;50.038;8.078;2022-12-18T06:16:01;39.67;;;18.73;;
23490;SDS011;14683;50.038;8.078;2022-12-18T06:18:27;41.42;;;19.02;;
23490;SDS011;14683;50.038;8.078;2022-12-18T06:20:57;40.10;;;18.88;;
23490;SDS011;14683;50.038;8.078;2022-12-18T06:23:24;39.08;;;18.88;;
23490;SDS011;14683;50.038;8.078;2022-12-18T06:25:51;41.58;;;18.83;;
23490;SDS011;14683;50.038;8.078;2022-12-18T06:28:17;44.08;;;20.80;;
23490;SDS011;14683;50.038;8.078;2022-12-18T06:30:43;46.72;;;19.77;;
23490;SDS011;14683;50.038;8.078;2022-12-18T06:33:10;45.65;;;22.08;;
23490;SDS011;14683;50.038;8.078;2022-12-18T06:35:36;50.50;;;22.38;;
23490;SDS011;14683;50.038;8.078;2022-12-18T06:38:02;45.75;;;19.67;;
23490;SDS011;14683;50.038;8.078;2022-12-18T06:40:28;40.90;;;19.48;;
23490;SDS011;14683;50.038;8.078;2022-12-18T06:42:54;46.65;;;19.60;;
23490;SDS011;14683;50.038;8.078;2022-12-18T06:45:20;38.55;;;18.48;;
23490;SDS011;14683;50.038;8.078;2022-12-18T06:47:47;37.03;;;18.15;;
23490;SDS011;14683;50.038;8.078;2022-12-18T06:50:13;38.97;;;19.20;;
23490;SDS011;14683;50.038;8.078;2022-12-18T06:52:39;41.92;;;19.80;;
23490;SDS011;14683;50.038;8.078;2022-12-18T06:55:06;42.88;;;20.02;;
23490;SDS011;14683;50.038;8.078;2022-12-18T06:57:35;42.78;;;19.10;;
23490;SDS011;14683;50.038;8.078;2022-12-18T07:00:02;43.28;;;18.88;;
23490;SDS011;14683;50.038;8.078;2022-12-18T07:02:29;41.17;;;20.48;;
23490;SDS011;14683;50.038;8.078;2022-12-18T07:04:55;45.00;;;19.95;;
23490;SDS011;14683;50.038;8.078;2022-12-18T07:07:21;39.22;;;19.00;;
23490;SDS011;14683;50.038;8.078;2022-12-18T07:09:49;43.45;;;19.92;;
23490;SDS011;14683;50.038;8.078;2022-12-18T07:12:15;41.92;;;19.60;;
23490;SDS011;14683;50.038;8.078;2022-12-18T07:14:41;47.97;;;19.85;;
23490;SDS011;14683;50.038;8.078;2022-12-18T07:17:07;45.70;;;20.92;;
23490;SDS011;14683;50.038;8.078;2022-12-18T07:19:33;52.60;;;22.05;;
23490;SDS011;14683;50.038;8.078;2022-12-18T07:22:00;57.75;;;23.27;;
23490;SDS011;14683;50.038;8.078;2022-12-18T07:24:26;54.95;;;22.38;;
23490;SDS011;14683;50.038;8.078;2022-12-18T07:26:52;49.53;;;21.30;;
23490;SDS011;14683;50.038;8.078;2022-12-18T07:29:18;44.30;;;19.42;;
23490;SDS011;14683;50.038;8.078;2022-12-18T07:31:44;48.22;;;21.55;;
23490;SDS011;14683;50.038;8.078;2022-12-18T07:34:11;43.38;;;19.58;;
23490;SDS011;14683;50.038;8.078;2022-12-18T07:36:37;42.13;;;20.88;;
23490;SDS011;14683;50.038;8.078;2022-12-18T07:39:03;48.97;;;23.38;;
23490;SDS011;14683;50.038;8.078;2022-12-18T07:41:30;45.15;;;20.83;;
23490;SDS011;14683;50.038;8.078;2022-12-18T07:44:02;43.63;;;20.70;;
23490;SDS011;14683;50.038;8.078;2022-12-18T07:46:28;52.10;;;24.52;;
23490;SDS011;14683;50.038;8.078;2022-12-18T07:48:54;45.88;;;22.27;;
23490;SDS011;14683;50.038;8.078;2022-12-18T07:51:20;44.15;;;21.73;;
23490;SDS011;14683;50.038;8.078;2022-12-18T07:53:46;43.55;;;19.63;;
23490;SDS011;14683;50.038;8.078;2022-12-18T07:56:12;42.40;;;19.55;;
23490;SDS011;14683;50.038;8.078;2022-12-18T07:58:39;50.67;;;21.60;;
23490;SDS011;14683;50.038;8.078;2022-12-18T08:01:08;50.90;;;22.15;;
23490;SDS011;14683;50.038;8.078;2022-12-18T08:03:37;52.05;;;20.95;;
23490;SDS011;14683;50.038;8.078;2022-12-18T08:06:05;47.33;;;21.00;;
23490;SDS011;14683;50.038;8.078;2022-12-18T08:08:32;47.78;;;21.58;;
23490;SDS011;14683;50.038;8.078;2022-12-18T08:10:59;48.40;;;21.42;;
23490;SDS011;14683;50.038;8.078;2022-12-18T08:13:25;48.40;;;21.30;;
23490;SDS011;14683;50.038;8.078;2022-12-18T08:15:56;45.17;;;22.50;;
23490;SDS011;14683;50.038;8.078;2022-12-18T08:18:23;52.15;;;24.20;;
23490;SDS011;14683;50.038;8.078;2022-12-18T08:20:49;45.97;;;22.85;;
23490;SDS011;14683;50.038;8.078;2022-12-18T08:23:15;49.17;;;22.90;;
23490;SDS011;14683;50.038;8.078;2022-12-18T08:25:41;44.30;;;21.05;;
23490;SDS011;14683;50.038;8.078;2022-12-18T08:28:07;41.75;;;20.17;;
23490;SDS011;14683;50.038;8.078;2022-12-18T08:30:33;47.42;;;19.83;;
23490;SDS011;14683;50.038;8.078;2022-12-18T08:32:59;47.50;;;21.90;;
23490;SDS011;14683;50.038;8.078;2022-12-18T08:35:25;49.67;;;21.60;;
23490;SDS011;14683;50.038;8.078;2022-12-18T08:37:51;51.22;;;21.92;;
23490;SDS011;14683;50.038;8.078;2022-12-18T08:40:17;37.65;;;19.38;;
23490;SDS011;14683;50.038;8.078;2022-12-18T08:42:43;40.95;;;19.23;;
23490;SDS011;14683;50.038;8.078;2022-12-18T08:45:27;42.13;;;20.23;;
23490;SDS011;14683;50.038;8.078;2022-12-18T08:47:53;42.28;;;19.13;;
23490;SDS011;14683;50.038;8.078;2022-12-18T08:50:20;43.53;;;19.83;;
23490;SDS011;14683;50.038;8.078;2022-12-18T08:52:46;44.40;;;19.23;;
23490;SDS011;14683;50.038;8.078;2022-12-18T08:55:12;45.40;;;22.02;;
23490;SDS011;14683;50.038;8.078;2022-12-18T08:57:38;44.03;;;19.30;;
23490;SDS011;14683;50.038;8.078;2022-12-18T09:00:04;42.38;;;21.10;;
23490;SDS011;14683;50.038;8.078;2022-12-18T09:02:30;38.78;;;19.63;;
23490;SDS011;14683;50.038;8.078;2022-12-18T09:04:56;45.00;;;19.63;;
23490;SDS011;14683;50.038;8.078;2022-12-18T09:07:22;39.03;;;19.30;;
23490;SDS011;14683;50.038;8.078;2022-12-18T09:09:48;34.10;;;18.23;;
23490;SDS011;14683;50.038;8.078;2022-12-18T09:12:15;38.25;;;19.23;;
23490;SDS011;14683;50.038;8.078;2022-12-18T09:14:41;47.17;;;20.45;;
23490;SDS011;14683;50.038;8.078;2022-12-18T09:17:07;40.58;;;19.13;;
23490;SDS011;14683;50.038;8.078;2022-12-18T09:19:33;43.85;;;19.92;;
23490;SDS011;14683;50.038;8.078;2022-12-18T09:21:59;40.20;;;18.70;;
23490;SDS011;14683;50.038;8.078;2022-12-18T09:24:25;39.33;;;18.65;;
23490;SDS011;14683;50.038;8.078;2022-12-18T09:26:54;42.13;;;19.88;;
23490;SDS011;14683;50.038;8.078;2022-12-18T09:29:20;47.45;;;19.88;;
23490;SDS011;14683;50.038;8.078;2022-12-18T09:31:46;47.55;;;21.00;;
23490;SDS011;14683;50.038;8.078;2022-12-18T09:34:12;38.92;;;18.67;;
23490;SDS011;14683;50.038;8.078;2022-12-18T09:36:38;48.72;;;20.25;;
23490;SDS011;14683;50.038;8.078;2022-12-18T09:39:04;48.58;;;20.92;;
23490;SDS011;14683;50.038;8.078;2022-12-18T09:47:05;40.78;;;19.63;;
23490;SDS011;14683;50.038;8.078;2022-12-18T09:49:47;51.15;;;20.95;;
23490;SDS011;14683;50.038;8.078;2022-12-18T09:52:21;48.70;;;22.10;;
23490;SDS011;14683;50.038;8.078;2022-12-18T09:55:03;30.05;;;14.65;;
23490;SDS011;14683;50.038;8.078;2022-12-18T09:57:33;41.75;;;20.30;;
23490;SDS011;14683;50.038;8.078;2022-12-18T10:00:15;41.53;;;20.00;;
23490;SDS011;14683;50.038;8.078;2022-12-18T10:02:44;44.17;;;20.33;;
23490;SDS011;14683;50.038;8.078;2022-12-18T10:05:17;43.72;;;21.20;;
23490;SDS011;14683;50.038;8.078;2022-12-18T10:08:02;39.88;;;19.23;;
23490;SDS011;14683;50.038;8.078;2022-12-18T10:21:02;40.40;;;19.10;;
23490;SDS011;14683;50.038;8.078;2022-12-18T10:23:33;39.72;;;19.67;;
23490;SDS011;14683;50.038;8.078;2022-12-18T10:26:13;39.17;;;20.30;;
23490;SDS011;14683;50.038;8.078;2022-12-18T10:28:39;40.55;;;19.48;;
23490;SDS011;14683;50.038;8.078;2022-12-18T10:31:06;40.42;;;20.50;;
23490;SDS011;14683;50.038;8.078;2022-12-18T10:33:33;39.38;;;20.00;;
23490;SDS011;14683;50.038;8.078;2022-12-18T10:36:00;42.83;;;20.55;;
23490;SDS011;14683;50.038;8.078;2022-12-18T10:38:30;41.47;;;19.88;;
23490;SDS011;14683;50.038;8.078;2022-12-18T10:40:58;42.85;;;20.50;;
23490;SDS011;14683;50.038;8.078;2022-12-18T10:43:28;41.25;;;20.23;;
23490;SDS011;14683;50.038;8.078;2022-12-18T10:54:14;43.17;;;20.13;;
23490;SDS011;14683;50.038;8.078;2022-12-18T10:56:43;45.80;;;19.70;;
23490;SDS011;14683;50.038;8.078;2022-12-18T10:59:11;37.17;;;19.40;;
23490;SDS011;14683;50.038;8.078;2022-12-18T11:01:48;36.03;;;18.77;;
23490;SDS011;14683;50.038;8.078;2022-12-18T11:04:19;43.40;;;19.80;;
23490;SDS011;14683;50.038;8.078;2022-12-18T11:09:26;39.80;;;19.70;;
23490;SDS011;14683;50.038;8.078;2022-12-18T11:11:54;39.30;;;20.38;;
23490;SDS011;14683;50.038;8.078;2022-12-18T11:14:25;44.90;;;22.00;;
23490;SDS011;14683;50.038;8.078;2022-12-18T11:16:55;50.03;;;23.45;;
23490;SDS011;14683;50.038;8.078;2022-12-18T11:19:40;52.08;;;23.42;;
23490;SDS011;14683;50.038;8.078;2022-12-18T11:24:56;51.67;;;22.50;;
23490;SDS011;14683;50.038;8.078;2022-12-18T11:27:24;55.70;;;24.65;;
23490;SDS011;14683;50.038;8.078;2022-12-18T11:29:50;48.83;;;23.13;;
23490;SDS011;14683;50.038;8.078;2022-12-18T11:32:37;43.35;;;21.17;;
23490;SDS011;14683;50.038;8.078;2022-12-18T11:36:07;46.67;;;22.58;;
23490;SDS011;14683;50.038;8.078;2022-12-18T11:38:18;51.10;;;21.98;;
23490;SDS011;14683;50.038;8.078;2022-12-18T11:43:28;45.88;;;21.92;;
23490;SDS011;14683;50.038;8.078;2022-12-18T11:48:53;47.88;;;22.80;;
23490;SDS011;14683;50.038;8.078;2022-12-18T11:52:31;47.47;;;23.77;;
23490;SDS011;14683;50.038;8.078;2022-12-18T11:54:35;48.15;;;23.33;;
23490;SDS011;14683;50.038;8.078;2022-12-18T12:04:56;50.38;;;23.05;;
23490;SDS011;14683;50.038;8.078;2022-12-18T12:07:42;44.28;;;21.63;;
23490;SDS011;14683;50.038;8.078;2022-12-18T12:10:48;49.08;;;22.52;;
23490;SDS011;14683;50.038;8.078;2022-12-18T12:13:25;53.33;;;25.00;;
23490;SDS011;14683;50.038;8.078;2022-12-18T12:18:48;56.47;;;25.48;;
23490;SDS011;14683;50.038;8.078;2022-12-18T12:21:40;49.03;;;22.88;;
23490;SDS011;14683;50.038;8.078;2022-12-18T12:24:30;51.60;;;24.42;;
23490;SDS011;14683;50.038;8.078;2022-12-18T12:32:24;49.03;;;22.25;;
23490;SDS011;14683;50.038;8.078;2022-12-18T12:40:30;56.60;;;24.80;;
23490;SDS011;14683;50.038;8.078;2022-12-18T12:42:58;50.63;;;23.10;;
23490;SDS011;14683;50.038;8.078;2022-12-18T12:45:55;49.13;;;22.58;;
23490;SDS011;14683;50.038;8.078;2022-12-18T12:51:35;49.35;;;22.55;;
23490;SDS011;14683;50.038;8.078;2022-12-18T12:54:04;45.88;;;21.98;;
23490;SDS011;14683;50.038;8.078;2022-12-18T12:56:49;52.17;;;23.77;;
23490;SDS011;14683;50.038;8.078;2022-12-18T13:02:18;47.65;;;23.60;;
23490;SDS011;14683;50.038;8.078;2022-12-18T13:04:49;55.28;;;24.75;;
23490;SDS011;14683;50.038;8.078;2022-12-18T13:07:41;50.33;;;23.85;;
23490;SDS011;14683;50.038;8.078;2022-12-18T13:15:30;50.10;;;23.63;;
23490;SDS011;14683;50.038;8.078;2022-12-18T13:25:45;53.20;;;24.48;;
23490;SDS011;14683;50.038;8.078;2022-12-18T13:28:13;53.42;;;24.67;;
23490;SDS011;14683;50.038;8.078;2022-12-18T13:38:23;58.53;;;24.83;;
23490;SDS011;14683;50.038;8.078;2022-12-18T13:43:40;56.53;;;25.17;;
23490;SDS011;14683;50.038;8.078;2022-12-18T13:46:25;58.22;;;26.15;;
23490;SDS011;14683;50.038;8.078;2022-12-18T13:48:58;54.72;;;27.15;;
23490;SDS011;14683;50.038;8.078;2022-12-18T13:51:43;69.22;;;27.95;;
23490;SDS011;14683;50.038;8.078;2022-12-18T13:56:55;68.65;;;29.10;;
23490;SDS011;14683;50.038;8.078;2022-12-18T14:01:53;70.07;;;28.10;;
23490;SDS011;14683;50.038;8.078;2022-12-18T14:04:26;68.55;;;28.98;;
23490;SDS011;14683;50.038;8.078;2022-12-18T14:07:06;66.43;;;29.27;;
23490;SDS011;14683;50.038;8.078;2022-12-18T14:09:36;64.95;;;27.25;;
23490;SDS011;14683;50.038;8.078;2022-12-18T14:12:05;73.07;;;30.23;;
23490;SDS011;14683;50.038;8.078;2022-12-18T14:14:50;59.10;;;26.13;;
23490;SDS011;14683;50.038;8.078;2022-12-18T14:17:17;70.32;;;28.42;;
23490;SDS011;14683;50.038;8.078;2022-12-18T14:19:44;60.40;;;27.48;;
23490;SDS011;14683;50.038;8.078;2022-12-18T14:22:19;65.72;;;27.77;;
23490;SDS011;14683;50.038;8.078;2022-12-18T14:24:47;65.68;;;26.98;;
23490;SDS011;14683;50.038;8.078;2022-12-18T14:27:21;66.45;;;27.88;;
23490;SDS011;14683;50.038;8.078;2022-12-18T14:29:48;70.43;;;27.88;;
23490;SDS011;14683;50.038;8.078;2022-12-18T14:32:18;66.07;;;28.38;;
23490;SDS011;14683;50.038;8.078;2022-12-18T14:34:47;72.63;;;28.90;;
23490;SDS011;14683;50.038;8.078;2022-12-18T14:37:21;63.90;;;26.30;;
23490;SDS011;14683;50.038;8.078;2022-12-18T14:40:11;66.65;;;26.55;;
23490;SDS011;14683;50.038;8.078;2022-12-18T14:42:39;69.63;;;26.73;;
23490;SDS011;14683;50.038;8.078;2022-12-18T14:48:07;67.15;;;26.52;;
23490;SDS011;14683;50.038;8.078;2022-12-18T14:50:34;66.80;;;26.67;;
23490;SDS011;14683;50.038;8.078;2022-12-18T14:53:00;65.95;;;27.10;;
23490;SDS011;14683;50.038;8.078;2022-12-18T14:55:27;70.55;;;26.67;;
23490;SDS011;14683;50.038;8.078;2022-12-18T14:57:53;63.55;;;27.35;;
23490;SDS011;14683;50.038;8.078;2022-12-18T15:00:21;67.75;;;27.58;;
23490;SDS011;14683;50.038;8.078;2022-12-18T15:02:53;70.85;;;27.08;;
23490;SDS011;14683;50.038;8.078;2022-12-18T15:07:57;75.85;;;28.95;;
23490;SDS011;14683;50.038;8.078;2022-12-18T15:10:26;74.15;;;26.67;;
23490;SDS011;14683;50.038;8.078;2022-12-18T15:16:05;76.32;;;26.30;;
23490;SDS011;14683;50.038;8.078;2022-12-18T15:18:16;64.97;;;26.25;;
23490;SDS011;14683;50.038;8.078;2022-12-18T15:26:02;67.70;;;24.70;;
23490;SDS011;14683;50.038;8.078;2022-12-18T15:36:10;71.70;;;25.42;;
23490;SDS011;14683;50.038;8.078;2022-12-18T15:38:38;66.40;;;24.85;;
23490;SDS011;14683;50.038;8.078;2022-12-18T15:41:04;68.90;;;25.25;;
23490;SDS011;14683;50.038;8.078;2022-12-18T15:43:33;72.07;;;25.77;;
23490;SDS011;14683;50.038;8.078;2022-12-18T15:46:03;76.43;;;25.70;;
23490;SDS011;14683;50.038;8.078;2022-12-18T15:48:32;66.40;;;26.10;;
23490;SDS011;14683;50.038;8.078;2022-12-18T15:50:59;58.67;;;24.42;;
23490;SDS011;14683;50.038;8.078;2022-12-18T15:53:27;70.07;;;28.40;;
23490;SDS011;14683;50.038;8.078;2022-12-18T15:55:56;71.22;;;26.77;;
23490;SDS011;14683;50.038;8.078;2022-12-18T15:58:43;70.30;;;25.85;;
23490;SDS011;14683;50.038;8.078;2022-12-18T16:01:10;73.47;;;28.13;;
23490;SDS011;14683;50.038;8.078;2022-12-18T16:03:36;75.40;;;27.33;;
23490;SDS011;14683;50.038;8.078;2022-12-18T16:06:02;65.28;;;25.23;;
23490;SDS011;14683;50.038;8.078;2022-12-18T16:08:29;75.15;;;28.05;;
23490;SDS011;14683;50.038;8.078;2022-12-18T16:10:56;71.13;;;26.42;;
23490;SDS011;14683;50.038;8.078;2022-12-18T16:13:22;66.47;;;24.40;;
23490;SDS011;14683;50.038;8.078;2022-12-18T16:15:48;62.80;;;25.75;;
23490;SDS011;14683;50.038;8.078;2022-12-18T16:18:15;67.78;;;24.42;;
23490;SDS011;14683;50.038;8.078;2022-12-18T16:20:41;67.88;;;24.23;;
23490;SDS011;14683;50.038;8.078;2022-12-18T16:23:07;71.38;;;25.23;;
23490;SDS011;14683;50.038;8.078;2022-12-18T16:25:33;65.85;;;26.05;;
23490;SDS011;14683;50.038;8.078;2022-12-18T16:27:59;62.55;;;24.23;;
23490;SDS011;14683;50.038;8.078;2022-12-18T16:30:26;68.10;;;24.92;;
23490;SDS011;14683;50.038;8.078;2022-12-18T16:32:53;59.47;;;22.60;;
23490;SDS011;14683;50.038;8.078;2022-12-18T16:35:22;61.42;;;24.77;;
23490;SDS011;14683;50.038;8.078;2022-12-18T16:37:48;67.95;;;25.15;;
23490;SDS011;14683;50.038;8.078;2022-12-18T16:40:15;62.30;;;23.40;;
23490;SDS011;14683;50.038;8.078;2022-12-18T16:42:42;62.85;;;24.13;;
23490;SDS011;14683;50.038;8.078;2022-12-18T16:45:11;60.80;;;24.15;;
23490;SDS011;14683;50.038;8.078;2022-12-18T16:47:39;64.10;;;24.95;;
23490;SDS011;14683;50.038;8.078;2022-12-18T16:50:05;66.18;;;23.73;;
23490;SDS011;14683;50.038;8.078;2022-12-18T16:52:32;58.10;;;23.90;;
23490;SDS011;14683;50.038;8.078;2022-12-18T16:54:58;59.92;;;23.67;;
23490;SDS011;14683;50.038;8.078;2022-12-18T16:57:24;63.20;;;24.02;;
23490;SDS011;14683;50.038;8.078;2022-12-18T16:59:50;72.40;;;29.65;;
23490;SDS011;14683;50.038;8.078;2022-12-18T17:02:25;59.25;;;25.75;;
23490;SDS011;14683;50.038;8.078;2022-12-18T17:04:53;66.40;;;29.77;;
23490;SDS011;14683;50.038;8.078;2022-12-18T17:07:21;65.80;;;25.85;;
23490;SDS011;14683;50.038;8.078;2022-12-18T17:09:47;70.07;;;25.45;;
23490;SDS011;14683;50.038;8.078;2022-12-18T17:12:15;54.28;;;23.92;;
23490;SDS011;14683;50.038;8.078;2022-12-18T17:14:41;64.82;;;23.13;;
23490;SDS011;14683;50.038;8.078;2022-12-18T17:17:07;64.05;;;23.92;;
23490;SDS011;14683;50.038;8.078;2022-12-18T17:19:33;60.60;;;23.98;;
23490;SDS011;14683;50.038;8.078;2022-12-18T17:21:59;59.90;;;25.08;;
23490;SDS011;14683;50.038;8.078;2022-12-18T17:24:25;64.68;;;26.13;;
23490;SDS011;14683;50.038;8.078;2022-12-18T17:26:51;71.25;;;28.98;;
23490;SDS011;14683;50.038;8.078;2022-12-18T17:29:18;69.05;;;29.25;;
23490;SDS011;14683;50.038;8.078;2022-12-18T17:31:45;65.22;;;26.27;;
23490;SDS011;14683;50.038;8.078;2022-12-18T17:34:11;64.88;;;25.27;;
23490;SDS011;14683;50.038;8.078;2022-12-18T17:36:38;60.17;;;24.73;;
23490;SDS011;14683;50.038;8.078;2022-12-18T17:39:05;69.60;;;25.48;;
23490;SDS011;14683;50.038;8.078;2022-12-18T17:41:31;59.30;;;25.05;;
23490;SDS011;14683;50.038;8.078;2022-12-18T17:43:58;65.68;;;25.55;;
23490;SDS011;14683;50.038;8.078;2022-12-18T17:46:26;66.72;;;25.88;;
23490;SDS011;14683;50.038;8.078;2022-12-18T17:48:57;70.28;;;26.30;;
23490;SDS011;14683;50.038;8.078;2022-12-18T17:51:23;69.60;;;28.00;;
23490;SDS011;14683;50.038;8.078;2022-12-18T17:53:50;63.13;;;24.40;;
23490;SDS011;14683;50.038;8.078;2022-12-18T17:56:17;58.47;;;24.73;;
23490;SDS011;14683;50.038;8.078;2022-12-18T17:58:44;66.05;;;24.80;;
23490;SDS011;14683;50.038;8.078;2022-12-18T18:01:12;61.83;;;24.77;;
23490;SDS011;14683;50.038;8.078;2022-12-18T18:03:39;61.38;;;25.70;;
23490;SDS011;14683;50.038;8.078;2022-12-18T18:06:05;58.35;;;24.13;;
23490;SDS011;14683;50.038;8.078;2022-12-18T18:08:32;68.78;;;26.35;;
23490;SDS011;14683;50.038;8.078;2022-12-18T18:11:02;63.55;;;25.42;;
23490;SDS011;14683;50.038;8.078;2022-12-18T18:13:51;61.97;;;24.90;;
23490;SDS011;14683;50.038;8.078;2022-12-18T18:16:29;69.22;;;24.95;;
23490;SDS011;14683;50.038;8.078;2022-12-18T18:19:00;70.50;;;26.00;;
23490;SDS011;14683;50.038;8.078;2022-12-18T18:21:28;59.42;;;25.35;;
23490;SDS011;14683;50.038;8.078;2022-12-18T18:23:58;67.50;;;26.58;;
23490;SDS011;14683;50.038;8.078;2022-12-18T18:26:25;61.47;;;24.80;;
23490;SDS011;14683;50.038;8.078;2022-12-18T18:28:53;58.75;;;24.45;;
23490;SDS011;14683;50.038;8.078;2022-12-18T18:31:20;66.40;;;26.75;;
23490;SDS011;14683;50.038;8.078;2022-12-18T18:33:46;61.00;;;23.88;;
23490;SDS011;14683;50.038;8.078;2022-12-18T18:36:12;62.85;;;25.27;;
23490;SDS011;14683;50.038;8.078;2022-12-18T18:38:38;68.13;;;28.40;;
23490;SDS011;14683;50.038;8.078;2022-12-18T18:41:04;55.72;;;26.52;;
23490;SDS011;14683;50.038;8.078;2022-12-18T18:43:32;59.38;;;23.85;;
23490;SDS011;14683;50.038;8.078;2022-12-18T18:45:59;56.03;;;22.98;;
23490;SDS011;14683;50.038;8.078;2022-12-18T18:48:26;60.67;;;24.20;;
23490;SDS011;14683;50.038;8.078;2022-12-18T18:50:56;59.40;;;24.30;;
23490;SDS011;14683;50.038;8.078;2022-12-18T18:53:25;63.88;;;25.60;;
23490;SDS011;14683;50.038;8.078;2022-12-18T18:55:51;61.10;;;25.08;;
23490;SDS011;14683;50.038;8.078;2022-12-18T18:58:17;68.03;;;27.17;;
23490;SDS011;14683;50.038;8.078;2022-12-18T19:00:43;64.10;;;24.08;;
23490;SDS011;14683;50.038;8.078;2022-12-18T19:03:09;65.28;;;25.08;;
23490;SDS011;14683;50.038;8.078;2022-12-18T19:05:35;67.90;;;25.85;;
23490;SDS011;14683;50.038;8.078;2022-12-18T19:08:01;60.90;;;24.50;;
23490;SDS011;14683;50.038;8.078;2022-12-18T19:10:27;64.50;;;25.45;;
23490;SDS011;14683;50.038;8.078;2022-12-18T19:12:53;59.80;;;24.10;;
23490;SDS011;14683;50.038;8.078;2022-12-18T19:15:38;65.20;;;24.50;;
23490;SDS011;14683;50.038;8.078;2022-12-18T19:18:04;67.72;;;25.52;;
23490;SDS011;14683;50.038;8.078;2022-12-18T19:20:30;65.38;;;26.38;;
23490;SDS011;14683;50.038;8.078;2022-12-18T19:22:56;64.70;;;24.23;;
23490;SDS011;14683;50.038;8.078;2022-12-18T19:25:23;60.55;;;25.17;;
23490;SDS011;14683;50.038;8.078;2022-12-18T19:27:50;59.22;;;23.40;;
23490;SDS011;14683;50.038;8.078;2022-12-18T19:30:16;61.00;;;24.23;;
23490;SDS011;14683;50.038;8.078;2022-12-18T19:32:42;62.50;;;24.17;;
23490;SDS011;14683;50.038;8.078;2022-12-18T19:35:09;64.03;;;24.45;;
23490;SDS011;14683;50.038;8.078;2022-12-18T19:37:35;59.92;;;23.92;;
23490;SDS011;14683;50.038;8.078;2022-12-18T19:40:01;59.25;;;24.90;;
23490;SDS011;14683;50.038;8.078;2022-12-18T19:42:27;54.65;;;24.00;;
23490;SDS011;14683;50.038;8.078;2022-12-18T19:44:53;56.20;;;24.80;;
23490;SDS011;14683;50.038;8.078;2022-12-18T19:47:19;55.13;;;23.15;;
23490;SDS011;14683;50.038;8.078;2022-12-18T19:49:45;57.80;;;23.92;;
23490;SDS011;14683;50.038;8.078;2022-12-18T19:52:11;70.85;;;26.98;;
23490;SDS011;14683;50.038;8.078;2022-12-18T19:54:37;63.03;;;26.13;;
23490;SDS011;14683;50.038;8.078;2022-12-18T19:57:04;62.17;;;25.10;;
23490;SDS011;14683;50.038;8.078;2022-12-18T19:59:32;60.97;;;24.63;;
23490;SDS011;14683;50.038;8.078;2022-12-18T20:01:58;61.58;;;24.45;;
23490;SDS011;14683;50.038;8.078;2022-12-18T20:04:24;63.70;;;24.00;;
23490;SDS011;14683;50.038;8.078;2022-12-18T20:06:51;61.45;;;25.40;;
23490;SDS011;14683;50.038;8.078;2022-12-18T20:09:17;60.42;;;25.00;;
23490;SDS011;14683;50.038;8.078;2022-12-18T20:11:44;62.28;;;25.00;;
23490;SDS011;14683;50.038;8.078;2022-12-18T20:14:10;60.40;;;23.25;;
23490;SDS011;14683;50.038;8.078;2022-12-18T20:16:38;60.42;;;24.50;;